Hayes, Virginia
Current Conditions -  °F | °C
As of 10:54 PM on Thursday 27 Nov 2014 (Local Time) from KPHF Reporting Station
Broken Clouds Broken Clouds  
Wind Chill: 36°   Ceiling: 7500
Heat Index: 40°   Visibility: 9mi
Dew Point: 33°   Wind: 6mph
Humidity: 77%   Direction: 320°NW
Pressure: 30.19"   Gusts: NA
Location:  37.28°N, 76.49°W
Report Text: KPHF 280354Z 32005KT 9SM BKN075 04/01 A3019 RMK AO2 SLP223 T00440006
Loading
Personal Weather Stations






























Interactive Weather Map New forecast layout! Learn more

10-Day Weather Forecast

Advertisements
Track Severe Weather on mobile